createdAt,value
2022-10-16T00:00:43.969Z,98834.55
2022-10-16T00:05:45.773Z,98832.16
2022-10-16T00:10:47.519Z,98837.94
2022-10-16T00:15:49.262Z,98830.71
2022-10-16T00:20:51.679Z,98827.56
2022-10-16T00:25:59.289Z,98829.38
2022-10-16T00:31:04.949Z,98833.03
2022-10-16T00:36:09.012Z,98835.66
2022-10-16T00:41:14.473Z,98836.17
2022-10-16T00:46:20.403Z,98832.38
2022-10-16T00:51:26.586Z,98827.77
2022-10-16T00:56:29.060Z,98822.88
2022-10-16T01:01:30.925Z,98825.80
2022-10-16T01:07:11.809Z,98825.52
2022-10-16T01:12:19.883Z,98830.60
2022-10-16T01:17:48.281Z,98829.00
2022-10-16T01:23:08.975Z,98833.05
2022-10-16T01:28:14.256Z,98831.10
2022-10-16T01:33:20.239Z,98828.74
2022-10-16T01:38:36.030Z,98825.84
2022-10-16T01:43:44.364Z,98831.72
2022-10-16T01:48:48.585Z,98835.07
2022-10-16T01:53:55.922Z,98837.95
2022-10-16T01:59:10.943Z,98841.91
2022-10-16T02:04:19.993Z,98847.97
2022-10-16T02:09:22.572Z,98853.43
2022-10-16T02:14:25.847Z,98856.98
2022-10-16T02:19:27.717Z,98860.54
2022-10-16T02:24:51.456Z,98859.84
2022-10-16T02:29:59.784Z,98863.04
2022-10-16T02:35:03.261Z,98847.42
2022-10-16T02:40:06.079Z,98845.58
2022-10-16T02:45:09.975Z,98847.48
2022-10-16T02:50:12.073Z,98843.97
2022-10-16T02:55:13.822Z,98846.95
2022-10-16T03:00:18.273Z,98849.11
2022-10-16T03:05:20.093Z,98855.05
2022-10-16T03:10:21.896Z,98859.70
2022-10-16T03:15:23.709Z,98862.65
2022-10-16T03:20:25.930Z,98865.68
2022-10-16T03:25:27.685Z,98874.98
2022-10-16T03:30:29.447Z,98879.53
2022-10-16T03:35:31.229Z,98882.18
2022-10-16T03:40:33.378Z,98884.59
2022-10-16T03:45:35.220Z,98880.86
2022-10-16T03:50:37.055Z,98887.80
2022-10-16T03:55:38.800Z,98887.94
2022-10-16T04:00:45.233Z,98886.58
2022-10-16T04:05:46.999Z,98890.10
2022-10-16T04:10:48.748Z,98891.48
2022-10-16T04:15:50.436Z,98894.36
2022-10-16T04:20:52.124Z,98896.68
2022-10-16T04:25:53.845Z,98903.27
2022-10-16T04:30:55.585Z,98900.27
2022-10-16T04:36:01.363Z,98899.25
2022-10-16T04:41:03.040Z,98903.30
2022-10-16T04:46:06.123Z,98909.05
2022-10-16T04:51:07.891Z,98918.48
2022-10-16T04:56:09.736Z,98918.56
2022-10-16T05:01:11.489Z,98931.17
2022-10-16T05:06:13.216Z,98931.62
2022-10-16T05:11:14.922Z,98940.41
2022-10-16T05:16:17.044Z,98945.80
2022-10-16T05:21:18.898Z,98946.87
2022-10-16T05:26:20.662Z,98947.94
2022-10-16T05:31:22.391Z,98946.12
2022-10-16T05:36:24.127Z,98950.57
2022-10-16T05:41:27.258Z,98954.39
2022-10-16T05:46:28.987Z,98953.50
2022-10-16T05:51:30.748Z,98964.70
2022-10-16T05:56:32.482Z,98970.72
2022-10-16T06:01:34.378Z,98978.96
2022-10-16T06:06:37.359Z,98984.35
2022-10-16T06:11:39.182Z,98985.27
2022-10-16T06:16:41.011Z,98990.00
2022-10-16T06:21:42.753Z,99001.34
2022-10-16T06:26:44.476Z,99004.08
2022-10-16T06:31:46.244Z,99015.52
2022-10-16T06:36:48.158Z,99025.27
2022-10-16T06:41:50.091Z,99031.44
2022-10-16T06:46:52.367Z,99031.69
2022-10-16T06:51:54.235Z,99020.03
2022-10-16T06:56:56.053Z,99019.27
2022-10-16T07:01:57.970Z,99022.52
2022-10-16T07:07:03.407Z,99024.89
2022-10-16T07:12:07.615Z,99033.94
2022-10-16T07:17:09.368Z,99040.27
2022-10-16T07:22:11.107Z,99050.55
2022-10-16T07:27:12.868Z,99048.15
2022-10-16T07:32:14.672Z,99060.30
2022-10-16T07:37:16.451Z,99066.80
2022-10-16T07:42:18.288Z,99067.59
2022-10-16T07:47:20.008Z,99066.20
2022-10-16T07:52:21.780Z,99072.09
2022-10-16T07:57:23.907Z,99071.48
2022-10-16T08:02:25.936Z,99069.23
2022-10-16T08:07:27.920Z,99071.13
2022-10-16T08:12:30.029Z,99077.30
2022-10-16T08:17:31.782Z,99083.48
2022-10-16T08:22:33.520Z,99082.09
2022-10-16T08:27:35.295Z,99093.40
2022-10-16T08:32:37.087Z,99092.17
2022-10-16T08:37:39.413Z,99097.05
2022-10-16T08:42:53.721Z,99097.91
2022-10-16T08:48:24.898Z,99098.12
2022-10-16T08:53:39.333Z,99101.16
2022-10-16T08:58:41.065Z,99099.03
2022-10-16T09:04:22.027Z,99097.97
2022-10-16T09:09:55.359Z,99098.48
2022-10-16T09:15:13.951Z,99100.52
2022-10-16T09:20:27.764Z,99107.23
2022-10-16T09:25:29.901Z,99114.89
2022-10-16T09:30:31.729Z,99115.04
2022-10-16T09:35:40.758Z,99120.23
2022-10-16T09:40:43.785Z,99125.31
2022-10-16T09:45:56.368Z,99123.30
2022-10-16T09:51:04.837Z,99126.41
2022-10-16T09:56:10.416Z,99122.08
2022-10-16T10:01:16.636Z,99120.73
2022-10-16T10:06:35.776Z,99133.91
2022-10-16T10:11:59.412Z,99135.45
2022-10-16T10:17:07.265Z,99139.70
2022-10-16T10:22:45.447Z,99144.91
2022-10-16T10:28:06.024Z,99149.63
2022-10-16T10:33:13.640Z,99142.27
2022-10-16T10:38:32.370Z,99138.50
2022-10-16T10:43:46.337Z,99128.88
2022-10-16T10:49:22.445Z,99135.77
2022-10-16T10:54:33.457Z,99136.45
2022-10-16T11:00:10.557Z,99130.63
2022-10-16T11:05:21.598Z,99127.45
2022-10-16T11:10:28.392Z,99134.91
2022-10-16T11:15:41.532Z,99136.19
2022-10-16T11:20:50.268Z,99131.10
2022-10-16T11:25:52.917Z,99131.20
2022-10-16T11:31:01.598Z,99139.57
2022-10-16T11:36:17.411Z,99137.08
2022-10-16T11:41:28.596Z,99135.31
2022-10-16T11:46:33.916Z,99134.02
2022-10-16T11:51:47.159Z,99138.34
2022-10-16T11:56:52.701Z,99146.06
2022-10-16T12:02:28.830Z,99149.45
2022-10-16T12:07:40.268Z,99154.52
2022-10-16T12:12:42.581Z,99164.83
2022-10-16T12:17:44.742Z,99167.61
2022-10-16T12:22:55.442Z,99165.09
2022-10-16T12:28:00.329Z,99162.04
2022-10-16T12:33:20.256Z,99158.33
2022-10-16T12:38:27.596Z,99156.79
2022-10-16T12:43:50.723Z,99163.20
2022-10-16T12:49:08.424Z,99162.63
2022-10-16T12:54:19.867Z,99166.58
2022-10-16T12:59:43.725Z,99165.89
2022-10-16T13:05:30.214Z,99171.21
2022-10-16T13:10:43.382Z,99173.34
2022-10-16T13:16:13.445Z,99171.48
2022-10-16T13:21:41.110Z,99177.55
2022-10-16T13:27:05.571Z,99173.36
2022-10-16T13:32:15.492Z,99170.45
2022-10-16T13:37:22.738Z,99165.41
2022-10-16T13:42:28.893Z,99164.71
2022-10-16T13:47:31.405Z,99156.95
2022-10-16T13:52:33.784Z,99148.36
2022-10-16T13:57:35.524Z,99159.37
2022-10-16T14:02:40.790Z,99172.31
2022-10-16T14:07:43.924Z,99184.56
2022-10-16T14:12:46.004Z,99191.42
2022-10-16T14:17:52.466Z,99188.31
2022-10-16T14:23:02.600Z,99191.65
2022-10-16T14:28:23.032Z,99197.07
2022-10-16T14:33:30.877Z,99192.79
2022-10-16T14:38:34.082Z,99199.14
2022-10-16T14:43:38.770Z,99204.89
2022-10-16T14:48:46.900Z,99217.09
2022-10-16T14:53:48.798Z,99219.44
2022-10-16T14:58:54.444Z,99208.22
2022-10-16T15:03:56.381Z,99203.58
2022-10-16T15:08:58.194Z,99213.71
2022-10-16T15:14:00.018Z,99215.80
2022-10-16T15:19:01.910Z,99212.29
2022-10-16T15:24:03.910Z,99225.70
2022-10-16T15:29:05.943Z,99235.77
2022-10-16T15:34:10.157Z,99238.14
2022-10-16T15:39:16.521Z,99241.89
2022-10-16T15:44:18.948Z,99241.58
2022-10-16T15:49:20.687Z,99240.89
2022-10-16T15:54:23.839Z,99246.77
2022-10-16T15:59:25.593Z,99245.72
2022-10-16T16:04:43.436Z,99243.60
2022-10-16T16:09:46.551Z,99245.81
2022-10-16T16:14:50.093Z,99252.95
2022-10-16T16:19:52.240Z,99258.85
2022-10-16T16:24:54.029Z,99264.85
2022-10-16T16:29:56.291Z,99273.95
2022-10-16T16:34:58.200Z,99288.27
2022-10-16T16:40:00.121Z,99298.27
2022-10-16T16:45:01.885Z,99313.98
2022-10-16T16:50:06.009Z,99316.58
2022-10-16T16:55:08.304Z,99325.91
2022-10-16T17:00:10.694Z,99324.81
2022-10-16T17:05:12.567Z,99326.35
2022-10-16T17:10:14.557Z,99333.44
2022-10-16T17:15:16.563Z,99344.55
2022-10-16T17:20:18.350Z,99349.36
2022-10-16T17:25:21.287Z,99357.23
2022-10-16T17:30:25.436Z,99363.56
2022-10-16T17:35:27.798Z,99365.09
2022-10-16T17:40:29.825Z,99377.05
2022-10-16T17:45:32.025Z,99381.89
2022-10-16T17:50:33.905Z,99387.84
2022-10-16T17:55:43.194Z,99389.36
2022-10-16T18:00:45.007Z,99386.58
2022-10-16T18:05:46.780Z,99388.25
2022-10-16T18:10:50.356Z,99390.88
2022-10-16T18:16:06.841Z,99395.73
2022-10-16T18:21:11.318Z,99402.34
2022-10-16T18:26:14.655Z,99413.11
2022-10-16T18:31:18.137Z,99421.70
2022-10-16T18:36:23.326Z,99415.05
2022-10-16T18:41:26.492Z,99422.80
2022-10-16T18:46:29.325Z,99429.23
2022-10-16T18:51:40.775Z,99429.09
2022-10-16T18:56:42.594Z,99437.36
2022-10-16T19:01:44.523Z,99442.79
2022-10-16T19:06:49.516Z,99446.09
2022-10-16T19:16:54.088Z,99456.39
2022-10-16T19:22:11.738Z,99467.39
2022-10-16T19:27:13.483Z,99483.34
2022-10-16T19:32:15.364Z,99489.45
2022-10-16T19:37:17.179Z,99491.86
2022-10-16T19:42:19.082Z,99489.88
2022-10-16T19:47:23.020Z,99489.74
2022-10-16T19:52:25.355Z,99487.71
2022-10-16T19:57:27.495Z,99495.15
2022-10-16T20:02:29.583Z,99496.45
2022-10-16T20:07:34.071Z,99493.49
2022-10-16T20:12:36.763Z,99501.35
2022-10-16T20:17:38.512Z,99509.86
2022-10-16T20:22:40.321Z,99509.73
2022-10-16T20:27:42.068Z,99511.77
2022-10-16T20:32:46.130Z,99523.34
2022-10-16T20:37:49.117Z,99530.10
2022-10-16T20:42:50.854Z,99531.89
2022-10-16T20:47:52.696Z,99531.57
2022-10-16T20:52:54.479Z,99539.60
2022-10-16T20:57:56.642Z,99545.65
2022-10-16T21:02:58.454Z,99554.92
2022-10-16T21:08:00.735Z,99562.29
2022-10-16T21:13:03.587Z,99562.99
2022-10-16T21:18:05.358Z,99570.58
2022-10-16T21:23:07.106Z,99572.98
2022-10-16T21:28:08.896Z,99577.21
2022-10-16T21:33:11.124Z,99581.62
2022-10-16T21:38:13.088Z,99591.42
2022-10-16T21:43:14.923Z,99595.83
2022-10-16T21:48:16.693Z,99597.05
2022-10-16T21:53:18.508Z,99594.73
2022-10-16T21:58:20.197Z,99592.18
2022-10-16T22:03:22.063Z,99597.10
2022-10-16T22:08:23.823Z,99591.20
2022-10-16T22:13:25.552Z,99590.05
2022-10-16T22:18:28.240Z,99590.23
2022-10-16T22:23:29.992Z,99590.29
2022-10-16T22:28:31.801Z,99594.63
2022-10-16T22:38:41.056Z,99599.91
2022-10-16T22:43:45.424Z,99606.70
2022-10-16T22:48:47.259Z,99622.67
2022-10-16T22:53:50.298Z,99631.45
2022-10-16T22:58:52.234Z,99631.61
2022-10-16T23:03:54.207Z,99634.64
2022-10-16T23:08:59.557Z,99630.11
2022-10-16T23:14:07.466Z,99629.92
2022-10-16T23:24:15.887Z,99629.48
2022-10-16T23:29:17.623Z,99633.37
2022-10-16T23:34:19.490Z,99635.14
2022-10-16T23:39:21.251Z,99636.80
2022-10-16T23:44:22.996Z,99640.27
2022-10-16T23:49:24.742Z,99640.83
2022-10-16T23:54:26.715Z,99644.81
2022-10-16T23:59:28.518Z,99639.52
